Time;durP1;ratioP1;P1;durP2;ratioP2;P2;SDS_P1;SDS_P2;PMS_P1;PMS_P2;Temp;Humidity;BMP_temperature;BMP_pressure;BME280_temperature;BME280_humidity;BME280_pressure;Samples;Min_cycle;Max_cycle;Signal;HPM_P1;HPM_P2
2023/10/29 00:01:24;;;;;;;36.95;6.40;;;;;;;;;;5030274;28;20029;-37
2023/10/29 00:03:51;;;;;;;45.38;5.97;;;;;;;;;;5031158;28;20383;-37
2023/10/29 00:06:18;;;;;;;41.17;5.80;;;;;;;;;;5031115;28;20395;-36
2023/10/29 00:08:45;;;;;;;49.55;6.72;;;;;;;;;;5028614;28;20028;-37
2023/10/29 00:11:15;;;;;;;54.70;7.82;;;;;;;;;;5030845;28;20056;-36
2023/10/29 00:13:43;;;;;;;56.80;8.85;;;;;;;;;;5030744;28;20024;-37
2023/10/29 00:16:11;;;;;;;89.22;12.57;;;;;;;;;;5030914;28;20033;-37
2023/10/29 00:18:38;;;;;;;73.22;10.23;;;;;;;;;;5030532;28;20030;-37
2023/10/29 00:21:05;;;;;;;75.20;11.40;;;;;;;;;;5027130;28;20057;-37
2023/10/29 00:23:33;;;;;;;75.35;10.80;;;;;;;;;;5012955;28;20029;-37
2023/10/29 00:26:00;;;;;;;73.70;11.20;;;;;;;;;;5030638;28;20029;-37
2023/10/29 00:28:28;;;;;;;77.38;12.98;;;;;;;;;;5030909;28;20026;-37
2023/10/29 00:30:55;;;;;;;89.68;17.38;;;;;;;;;;5031146;28;20060;-37
2023/10/29 00:33:22;;;;;;;99.18;17.45;;;;;;;;;;5031386;28;20148;-37
2023/10/29 00:35:49;;;;;;;89.53;16.30;;;;;;;;;;5031291;28;20037;-37
2023/10/29 00:38:16;;;;;;;99.95;18.50;;;;;;;;;;5031666;28;20361;-37
2023/10/29 00:40:43;;;;;;;92.43;18.95;;;;;;;;;;5031411;28;20404;-37
2023/10/29 00:43:14;;;;;;;99.93;18.65;;;;;;;;;;5030762;28;20057;-37
2023/10/29 00:45:42;;;;;;;133.88;22.17;;;;;;;;;;5007254;28;20021;-37
2023/10/29 00:48:10;;;;;;;115.47;19.90;;;;;;;;;;5030329;28;20017;-37
2023/10/29 00:50:37;;;;;;;91.53;18.88;;;;;;;;;;5012533;28;20491;-37
2023/10/29 00:53:04;;;;;;;118.05;20.52;;;;;;;;;;5030300;28;20084;-37
2023/10/29 00:55:33;;;;;;;140.70;23.65;;;;;;;;;;5012864;28;20036;-37
2023/10/29 00:58:00;;;;;;;150.32;25.88;;;;;;;;;;5030051;28;20091;-37
2023/10/29 01:00:27;;;;;;;142.52;22.70;;;;;;;;;;5030408;28;20060;-37
2023/10/29 01:02:54;;;;;;;111.60;20.08;;;;;;;;;;5030204;28;20407;-36
2023/10/29 01:05:21;;;;;;;149.77;23.83;;;;;;;;;;5020157;28;20044;-36
2023/10/29 01:07:49;;;;;;;128.00;21.15;;;;;;;;;;5031286;28;20029;-39
2023/10/29 01:10:16;;;;;;;146.15;22.40;;;;;;;;;;5012833;28;20065;-37
2023/10/29 01:12:45;;;;;;;133.35;22.73;;;;;;;;;;5027565;28;20026;-37
2023/10/29 01:15:12;;;;;;;133.82;21.15;;;;;;;;;;5034704;28;20029;-37
2023/10/29 01:17:39;;;;;;;129.70;21.63;;;;;;;;;;5034577;28;20026;-36
2023/10/29 01:20:06;;;;;;;130.88;22.67;;;;;;;;;;5034350;28;20037;-36
2023/10/29 01:22:36;;;;;;;115.85;21.25;;;;;;;;;;5034764;28;20037;-37
2023/10/29 01:25:07;;;;;;;112.03;22.45;;;;;;;;;;5021980;28;20029;-36
2023/10/29 01:27:34;;;;;;;116.20;22.13;;;;;;;;;;5034070;28;20435;-36
2023/10/29 01:30:01;;;;;;;117.40;21.42;;;;;;;;;;5016469;28;20419;-37
2023/10/29 01:32:29;;;;;;;109.82;22.77;;;;;;;;;;5034359;28;20395;-37
2023/10/29 01:34:56;;;;;;;110.40;20.92;;;;;;;;;;5034484;28;20048;-36
2023/10/29 01:37:23;;;;;;;104.85;21.55;;;;;;;;;;5034340;28;20038;-37
2023/10/29 01:39:50;;;;;;;92.50;18.90;;;;;;;;;;5034284;28;20364;-37
2023/10/29 01:42:17;;;;;;;113.22;21.17;;;;;;;;;;5034131;28;20034;-36
2023/10/29 01:44:44;;;;;;;95.53;21.40;;;;;;;;;;5034411;28;20828;-36
2023/10/29 01:47:11;;;;;;;88.85;20.25;;;;;;;;;;5034069;28;20029;-36
2023/10/29 01:49:38;;;;;;;90.28;20.08;;;;;;;;;;5033826;28;20446;-36
2023/10/29 01:52:05;;;;;;;104.55;20.45;;;;;;;;;;5034050;28;20387;-36
2023/10/29 01:54:32;;;;;;;92.97;18.70;;;;;;;;;;5033996;28;20108;-35
2023/10/29 01:57:00;;;;;;;77.40;18.15;;;;;;;;;;5033968;28;20056;-38
2023/10/29 01:59:27;;;;;;;79.47;18.88;;;;;;;;;;5032738;28;20492;-36
2023/10/29 02:01:54;;;;;;;77.13;19.23;;;;;;;;;;5033976;28;20430;-36
2023/10/29 02:04:26;;;;;;;80.88;17.75;;;;;;;;;;5033701;28;20159;-37
2023/10/29 02:06:56;;;;;;;65.13;18.25;;;;;;;;;;5033751;28;20029;-37
2023/10/29 02:09:23;;;;;;;81.43;17.55;;;;;;;;;;5033739;28;20022;-36
2023/10/29 02:11:50;;;;;;;83.07;17.38;;;;;;;;;;5033389;28;20033;-37
2023/10/29 02:14:17;;;;;;;76.50;18.45;;;;;;;;;;5033615;28;20025;-37
2023/10/29 02:16:46;;;;;;;82.32;18.08;;;;;;;;;;5033323;28;20419;-37
2023/10/29 02:19:13;;;;;;;87.15;17.63;;;;;;;;;;5033173;28;20049;-37
2023/10/29 02:21:40;;;;;;;74.40;15.75;;;;;;;;;;5033389;28;20060;-36
2023/10/29 02:24:07;;;;;;;69.85;15.98;;;;;;;;;;5032724;28;20033;-36
2023/10/29 02:26:34;;;;;;;68.57;14.18;;;;;;;;;;5032610;28;20021;-36
2023/10/29 02:29:01;;;;;;;67.47;14.50;;;;;;;;;;5031938;28;20037;-36
2023/10/29 02:31:29;;;;;;;55.78;13.73;;;;;;;;;;5033414;28;20029;-36
2023/10/29 02:33:56;;;;;;;70.63;15.10;;;;;;;;;;5033110;28;20025;-37
2023/10/29 02:36:23;;;;;;;59.92;14.90;;;;;;;;;;5033113;28;20727;-36
2023/10/29 02:38:50;;;;;;;72.15;15.98;;;;;;;;;;5033041;28;20021;-36
2023/10/29 02:41:17;;;;;;;61.97;13.77;;;;;;;;;;5033299;28;20710;-36
2023/10/29 02:43:44;;;;;;;63.55;14.93;;;;;;;;;;5033120;28;20507;-37
2023/10/29 02:46:11;;;;;;;59.35;15.68;;;;;;;;;;5032928;28;20510;-36
2023/10/29 02:48:38;;;;;;;55.15;13.15;;;;;;;;;;5032611;28;20092;-37
2023/10/29 02:51:05;;;;;;;42.53;12.38;;;;;;;;;;5032927;28;20029;-36
2023/10/29 02:53:32;;;;;;;57.83;12.90;;;;;;;;;;5033133;28;20025;-36
2023/10/29 02:56:03;;;;;;;42.55;10.63;;;;;;;;;;5032537;28;20033;-36
2023/10/29 02:58:30;;;;;;;51.50;10.93;;;;;;;;;;5032699;28;20033;-36
2023/10/29 03:01:07;;;;;;;51.13;10.00;;;;;;;;;;5032272;28;20029;-36
2023/10/29 03:03:34;;;;;;;37.53;8.68;;;;;;;;;;5031615;28;20034;-37
2023/10/29 03:06:08;;;;;;;39.33;8.82;;;;;;;;;;5032620;28;20381;-36
2023/10/29 03:08:36;;;;;;;32.63;8.57;;;;;;;;;;5032868;28;20167;-36
2023/10/29 03:11:04;;;;;;;45.67;9.68;;;;;;;;;;5032620;28;20538;-36
2023/10/29 03:13:31;;;;;;;41.08;8.38;;;;;;;;;;5032256;28;20543;-36
2023/10/29 03:15:58;;;;;;;33.78;7.55;;;;;;;;;;5014366;28;20442;-36
2023/10/29 03:18:25;;;;;;;38.13;8.70;;;;;;;;;;5032530;28;20025;-37
2023/10/29 03:20:52;;;;;;;49.38;8.68;;;;;;;;;;5032249;28;20060;-37
2023/10/29 03:23:19;;;;;;;47.70;7.63;;;;;;;;;;5032286;28;20056;-37
2023/10/29 03:25:46;;;;;;;37.03;6.90;;;;;;;;;;5032351;28;20053;-36
2023/10/29 03:28:13;;;;;;;47.65;7.07;;;;;;;;;;5032220;28;20092;-36
2023/10/29 03:30:40;;;;;;;33.75;7.20;;;;;;;;;;5031697;28;20021;-36
2023/10/29 03:33:08;;;;;;;36.08;5.90;;;;;;;;;;5032438;28;20030;-36
2023/10/29 03:35:35;;;;;;;34.63;6.32;;;;;;;;;;5014138;28;20031;-35
2023/10/29 03:38:02;;;;;;;27.88;6.32;;;;;;;;;;5029068;28;20018;-35
2023/10/29 03:40:29;;;;;;;36.90;6.90;;;;;;;;;;5031087;28;20041;-35
2023/10/29 03:42:57;;;;;;;38.70;7.20;;;;;;;;;;5031966;28;20029;-38
2023/10/29 03:45:24;;;;;;;35.53;6.85;;;;;;;;;;5030654;28;20037;-36
2023/10/29 03:47:51;;;;;;;33.67;5.57;;;;;;;;;;5031000;28;20025;-36
2023/10/29 03:50:18;;;;;;;32.10;5.45;;;;;;;;;;5031823;28;20029;-35
2023/10/29 03:52:45;;;;;;;29.60;5.28;;;;;;;;;;5031960;28;20057;-36
2023/10/29 03:55:12;;;;;;;27.13;4.97;;;;;;;;;;5031723;28;20067;-36
2023/10/29 03:57:39;;;;;;;25.88;4.63;;;;;;;;;;5031752;28;20026;-37
2023/10/29 04:00:07;;;;;;;31.58;4.80;;;;;;;;;;5031686;28;20040;-36
2023/10/29 04:02:34;;;;;;;36.67;4.65;;;;;;;;;;5031069;28;20121;-36
2023/10/29 04:05:01;;;;;;;31.13;4.15;;;;;;;;;;5031668;28;20038;-36
2023/10/29 04:07:28;;;;;;;22.42;3.80;;;;;;;;;;5030702;28;20108;-37
2023/10/29 04:09:56;;;;;;;20.60;3.67;;;;;;;;;;5031107;28;20436;-37
2023/10/29 04:12:26;;;;;;;30.05;4.32;;;;;;;;;;5018867;28;20014;-36
2023/10/29 04:14:53;;;;;;;30.77;3.95;;;;;;;;;;5031246;28;20464;-37
2023/10/29 04:17:21;;;;;;;23.05;4.18;;;;;;;;;;5018936;28;20400;-37
2023/10/29 04:19:48;;;;;;;20.63;3.00;;;;;;;;;;5031218;28;20033;-35
2023/10/29 04:22:15;;;;;;;17.67;3.17;;;;;;;;;;5028672;28;20500;-36
2023/10/29 04:24:42;;;;;;;15.98;3.50;;;;;;;;;;5010109;28;20045;-36
2023/10/29 04:27:09;;;;;;;23.33;3.88;;;;;;;;;;5028789;28;20514;-37
2023/10/29 04:29:37;;;;;;;21.80;4.18;;;;;;;;;;5029695;28;20029;-39
2023/10/29 04:32:04;;;;;;;24.08;3.50;;;;;;;;;;5011970;28;20090;-38
2023/10/29 04:34:31;;;;;;;18.73;3.35;;;;;;;;;;5028692;28;20043;-37
2023/10/29 04:36:59;;;;;;;26.75;3.88;;;;;;;;;;5030410;28;20368;-37
2023/10/29 04:39:26;;;;;;;22.83;3.40;;;;;;;;;;5030923;28;20076;-37
2023/10/29 04:41:53;;;;;;;23.23;3.60;;;;;;;;;;5030465;28;20029;-36
2023/10/29 04:44:20;;;;;;;25.92;2.95;;;;;;;;;;5031376;28;20140;-36
2023/10/29 04:46:47;;;;;;;22.35;2.95;;;;;;;;;;5031374;28;20028;-36
2023/10/29 04:49:14;;;;;;;17.85;2.63;;;;;;;;;;5031423;28;20040;-36
2023/10/29 04:51:41;;;;;;;21.55;2.50;;;;;;;;;;5031298;28;20018;-36
2023/10/29 04:54:10;;;;;;;24.80;2.40;;;;;;;;;;5031375;28;20097;-36
2023/10/29 04:56:37;;;;;;;21.95;3.10;;;;;;;;;;5031141;28;20480;-36
2023/10/29 04:59:04;;;;;;;16.02;2.55;;;;;;;;;;5031328;28;20026;-36
2023/10/29 05:01:31;;;;;;;16.48;2.38;;;;;;;;;;5031341;28;20025;-36
2023/10/29 05:03:58;;;;;;;18.23;2.38;;;;;;;;;;5031193;28;20025;-36
2023/10/29 05:06:25;;;;;;;20.38;3.08;;;;;;;;;;5031207;28;20018;-36
2023/10/29 05:08:52;;;;;;;16.38;2.17;;;;;;;;;;5031276;28;20017;-36
2023/10/29 05:11:19;;;;;;;16.13;2.42;;;;;;;;;;5031219;28;20107;-37
2023/10/29 05:13:46;;;;;;;14.02;2.00;;;;;;;;;;5030368;28;20036;-37
2023/10/29 05:16:13;;;;;;;12.15;2.38;;;;;;;;;;5030880;28;20044;-36
2023/10/29 05:18:40;;;;;;;17.83;2.60;;;;;;;;;;5031229;28;20021;-36
2023/10/29 05:21:07;;;;;;;15.60;2.38;;;;;;;;;;5030538;28;20049;-36
2023/10/29 05:23:35;;;;;;;38.85;3.38;;;;;;;;;;5031060;28;20026;-36
2023/10/29 05:26:02;;;;;;;19.00;2.22;;;;;;;;;;5031149;28;20480;-36
2023/10/29 05:28:29;;;;;;;21.80;2.47;;;;;;;;;;5030882;28;20029;-37
2023/10/29 05:30:56;;;;;;;22.48;2.08;;;;;;;;;;5013374;28;20395;-36
2023/10/29 05:33:23;;;;;;;12.70;2.20;;;;;;;;;;5031023;28;20033;-36
2023/10/29 05:35:51;;;;;;;12.23;1.95;;;;;;;;;;5030945;28;20026;-36
2023/10/29 05:38:18;;;;;;;24.27;2.40;;;;;;;;;;5030627;28;20032;-36
2023/10/29 05:40:45;;;;;;;25.20;2.35;;;;;;;;;;5030964;28;20040;-36
2023/10/29 05:43:12;;;;;;;19.77;1.88;;;;;;;;;;5031029;28;20052;-36
2023/10/29 05:45:39;;;;;;;28.10;1.98;;;;;;;;;;5031008;28;20029;-36
2023/10/29 05:48:06;;;;;;;22.50;2.35;;;;;;;;;;5030886;28;20447;-36
2023/10/29 05:50:33;;;;;;;13.35;1.75;;;;;;;;;;5030844;28;20884;-36
2023/10/29 05:53:00;;;;;;;24.95;2.08;;;;;;;;;;5030645;28;20036;-36
2023/10/29 05:55:27;;;;;;;27.20;2.55;;;;;;;;;;5034364;28;20048;-36
2023/10/29 05:57:55;;;;;;;26.70;2.47;;;;;;;;;;5034380;28;20100;-36
2023/10/29 06:00:22;;;;;;;22.10;1.92;;;;;;;;;;5034313;28;20112;-36
2023/10/29 06:02:49;;;;;;;21.73;2.30;;;;;;;;;;5033030;28;20037;-36
2023/10/29 06:05:16;;;;;;;24.77;2.60;;;;;;;;;;5034046;28;20057;-36
2023/10/29 06:07:44;;;;;;;22.67;1.92;;;;;;;;;;5034114;28;20030;-37
2023/10/29 06:10:13;;;;;;;17.85;1.90;;;;;;;;;;5034319;28;20029;-36
2023/10/29 06:12:40;;;;;;;25.38;2.42;;;;;;;;;;5034170;28;20032;-37
2023/10/29 06:15:16;;;;;;;21.42;1.98;;;;;;;;;;5034143;28;20088;-37
2023/10/29 06:17:43;;;;;;;20.13;1.92;;;;;;;;;;5034088;28;20021;-37
2023/10/29 06:20:16;;;;;;;12.73;1.92;;;;;;;;;;5033643;28;20029;-37
2023/10/29 06:22:45;;;;;;;21.52;2.05;;;;;;;;;;5033847;28;20104;-37
2023/10/29 06:25:12;;;;;;;27.88;2.38;;;;;;;;;;5033672;28;20415;-37
2023/10/29 06:27:39;;;;;;;18.15;1.83;;;;;;;;;;5033635;28;20033;-36
2023/10/29 06:30:06;;;;;;;20.70;2.33;;;;;;;;;;5033943;28;20052;-36
2023/10/29 06:32:33;;;;;;;20.45;1.92;;;;;;;;;;5033938;28;20022;-36
2023/10/29 06:35:00;;;;;;;16.20;1.80;;;;;;;;;;5033701;28;20037;-36
2023/10/29 06:37:27;;;;;;;19.42;1.52;;;;;;;;;;5033751;28;20033;-36
2023/10/29 06:39:54;;;;;;;16.27;1.45;;;;;;;;;;5033708;28;20037;-36
2023/10/29 06:42:21;;;;;;;14.43;1.42;;;;;;;;;;5033773;28;20025;-36
2023/10/29 06:44:48;;;;;;;7.63;1.30;;;;;;;;;;5033652;28;20092;-36
2023/10/29 06:47:15;;;;;;;16.33;1.67;;;;;;;;;;5033546;28;20097;-36
2023/10/29 06:49:43;;;;;;;14.13;1.55;;;;;;;;;;5033584;28;20083;-36
2023/10/29 06:52:11;;;;;;;13.40;1.40;;;;;;;;;;5033466;28;20037;-36
2023/10/29 06:54:38;;;;;;;13.52;1.60;;;;;;;;;;5033525;28;20476;-36
2023/10/29 06:57:05;;;;;;;28.65;2.40;;;;;;;;;;5033407;28;20034;-36
2023/10/29 06:59:33;;;;;;;19.00;1.90;;;;;;;;;;5033404;28;20041;-36
2023/10/29 07:02:00;;;;;;;28.98;2.58;;;;;;;;;;5033298;28;20021;-36
2023/10/29 07:04:27;;;;;;;28.25;1.98;;;;;;;;;;5033225;28;20049;-36
2023/10/29 07:06:54;;;;;;;32.58;2.35;;;;;;;;;;5032466;28;20040;-36
2023/10/29 07:09:21;;;;;;;26.15;2.30;;;;;;;;;;5033198;28;20492;-36
2023/10/29 07:11:49;;;;;;;36.50;2.42;;;;;;;;;;5033102;28;20030;-37
2023/10/29 07:14:16;;;;;;;24.95;1.70;;;;;;;;;;5032993;28;20038;-37
2023/10/29 07:16:46;;;;;;;22.73;1.80;;;;;;;;;;5032976;28;20075;-37
2023/10/29 07:19:13;;;;;;;29.08;1.88;;;;;;;;;;5032978;28;20056;-37
2023/10/29 07:21:40;;;;;;;47.15;2.78;;;;;;;;;;5032852;28;20061;-37
2023/10/29 07:24:07;;;;;;;39.25;2.78;;;;;;;;;;5032848;28;20029;-37
2023/10/29 07:26:35;;;;;;;60.97;3.55;;;;;;;;;;5032737;28;20472;-37
2023/10/29 07:29:02;;;;;;;88.05;5.47;;;;;;;;;;5032784;28;20022;-37
2023/10/29 07:31:30;;;;;;;88.63;5.68;;;;;;;;;;5032778;28;20052;-36
2023/10/29 07:33:57;;;;;;;71.32;4.80;;;;;;;;;;5032715;28;20029;-37
2023/10/29 07:36:24;;;;;;;90.60;5.43;;;;;;;;;;5014747;28;20026;-37
2023/10/29 07:38:51;;;;;;;98.88;6.05;;;;;;;;;;5032687;28;20029;-37
2023/10/29 07:41:21;;;;;;;126.15;7.40;;;;;;;;;;5032592;28;20033;-37
2023/10/29 07:43:49;;;;;;;109.38;7.00;;;;;;;;;;5032603;28;20416;-37
2023/10/29 07:46:16;;;;;;;60.42;4.90;;;;;;;;;;5032318;28;20032;-37
2023/10/29 07:48:43;;;;;;;74.68;5.28;;;;;;;;;;5032461;28;20037;-37
2023/10/29 07:51:10;;;;;;;64.30;3.90;;;;;;;;;;5032346;28;20025;-37
2023/10/29 07:53:37;;;;;;;47.17;3.70;;;;;;;;;;5032372;28;20079;-37
2023/10/29 07:56:08;;;;;;;45.13;3.50;;;;;;;;;;5032146;28;20104;-37
2023/10/29 07:58:35;;;;;;;28.08;3.03;;;;;;;;;;5014541;28;20018;-37
2023/10/29 08:01:02;;;;;;;34.05;3.60;;;;;;;;;;5032120;28;20037;-37
2023/10/29 08:03:29;;;;;;;37.33;2.72;;;;;;;;;;5032243;28;20499;-37
2023/10/29 08:05:56;;;;;;;27.52;3.00;;;;;;;;;;5032010;28;20018;-37
2023/10/29 08:08:23;;;;;;;33.35;2.55;;;;;;;;;;5032043;28;20021;-37
2023/10/29 08:10:50;;;;;;;31.33;2.67;;;;;;;;;;5032121;28;20095;-37
2023/10/29 08:13:17;;;;;;;45.05;3.55;;;;;;;;;;5031980;28;20057;-36
2023/10/29 08:15:44;;;;;;;32.38;3.03;;;;;;;;;;5031981;28;20033;-36
2023/10/29 08:18:11;;;;;;;21.45;2.90;;;;;;;;;;5031688;28;20033;-36
2023/10/29 08:20:38;;;;;;;23.35;2.38;;;;;;;;;;5031551;28;20132;-36
2023/10/29 08:23:05;;;;;;;26.38;2.45;;;;;;;;;;5031883;28;20053;-36
2023/10/29 08:25:33;;;;;;;24.48;2.22;;;;;;;;;;5031909;28;20092;-36
2023/10/29 08:28:00;;;;;;;17.08;1.92;;;;;;;;;;5031855;28;20030;-36
2023/10/29 08:30:26;;;;;;;23.33;2.20;;;;;;;;;;5031747;28;20017;-36
2023/10/29 08:32:53;;;;;;;18.25;1.67;;;;;;;;;;5031714;28;20030;-36
2023/10/29 08:35:20;;;;;;;18.08;1.88;;;;;;;;;;5013787;28;20503;-36
2023/10/29 08:37:47;;;;;;;18.95;2.47;;;;;;;;;;5031725;28;20104;-36
2023/10/29 08:40:15;;;;;;;17.27;1.85;;;;;;;;;;5031487;28;20044;-36
2023/10/29 08:42:43;;;;;;;15.50;2.15;;;;;;;;;;5013854;28;20036;-36
2023/10/29 08:45:12;;;;;;;14.90;1.70;;;;;;;;;;5031464;28;20507;-36
2023/10/29 08:47:39;;;;;;;23.65;2.33;;;;;;;;;;5031730;28;20026;-36
2023/10/29 08:50:09;;;;;;;14.82;1.85;;;;;;;;;;5031603;28;20484;-36
2023/10/29 08:52:37;;;;;;;14.48;1.58;;;;;;;;;;5031509;28;20022;-36
2023/10/29 08:55:04;;;;;;;10.63;1.33;;;;;;;;;;5031254;28;20045;-36
2023/10/29 08:57:35;;;;;;;12.48;1.40;;;;;;;;;;5031359;28;20451;-36
2023/10/29 09:00:02;;;;;;;14.45;1.60;;;;;;;;;;5031330;28;20039;-36
2023/10/29 09:02:30;;;;;;;12.27;1.50;;;;;;;;;;5031355;28;20068;-36
2023/10/29 09:04:57;;;;;;;12.82;1.73;;;;;;;;;;5031190;28;20028;-36
2023/10/29 09:07:25;;;;;;;12.43;1.25;;;;;;;;;;5031463;28;20117;-36
2023/10/29 09:09:53;;;;;;;8.80;0.90;;;;;;;;;;5031362;28;20025;-36
2023/10/29 09:12:21;;;;;;;11.13;1.02;;;;;;;;;;5031315;28;20095;-36
2023/10/29 09:14:48;;;;;;;11.02;1.30;;;;;;;;;;5031253;28;20052;-36
2023/10/29 09:17:15;;;;;;;10.60;1.20;;;;;;;;;;5031330;28;20021;-37
2023/10/29 09:19:42;;;;;;;6.63;1.02;;;;;;;;;;5031291;28;20029;-37
2023/10/29 09:22:10;;;;;;;9.48;1.48;;;;;;;;;;5030956;28;20053;-37
2023/10/29 09:24:37;;;;;;;5.18;0.80;;;;;;;;;;5031277;28;20022;-37
2023/10/29 09:27:04;;;;;;;9.90;0.98;;;;;;;;;;5031151;28;20026;-37
2023/10/29 09:29:33;;;;;;;10.98;1.10;;;;;;;;;;5033542;28;20044;-37
2023/10/29 09:32:04;;;;;;;5.57;1.00;;;;;;;;;;5034954;28;20029;-37
2023/10/29 09:34:32;;;;;;;5.57;0.95;;;;;;;;;;5034781;28;20044;-37
2023/10/29 09:37:00;;;;;;;4.32;0.85;;;;;;;;;;5035053;28;20476;-37
2023/10/29 09:39:27;;;;;;;7.65;1.25;;;;;;;;;;5034839;28;20041;-37
2023/10/29 09:41:55;;;;;;;8.05;0.80;;;;;;;;;;5035064;28;20037;-37
2023/10/29 09:44:22;;;;;;;5.13;0.52;;;;;;;;;;5034897;28;20026;-37
2023/10/29 09:46:53;;;;;;;6.90;1.13;;;;;;;;;;5034727;28;20092;-37
2023/10/29 09:49:20;;;;;;;7.18;0.80;;;;;;;;;;5034764;28;20029;-37
2023/10/29 09:51:48;;;;;;;8.02;1.13;;;;;;;;;;5034711;28;20116;-37
2023/10/29 09:54:15;;;;;;;3.65;1.08;;;;;;;;;;5034693;28;20022;-37
2023/10/29 09:56:42;;;;;;;3.33;0.70;;;;;;;;;;5034441;28;20506;-36
2023/10/29 09:59:10;;;;;;;4.22;0.65;;;;;;;;;;5034419;28;20400;-36
2023/10/29 10:01:37;;;;;;;7.40;0.77;;;;;;;;;;5034655;28;20049;-36
2023/10/29 10:04:04;;;;;;;4.53;0.85;;;;;;;;;;5016556;28;20052;-36
2023/10/29 10:06:31;;;;;;;4.22;0.60;;;;;;;;;;5034393;28;20045;-36
2023/10/29 10:08:58;;;;;;;3.35;0.82;;;;;;;;;;5034432;28;20036;-36
2023/10/29 10:11:25;;;;;;;6.97;0.50;;;;;;;;;;5034385;28;20036;-36
2023/10/29 10:13:52;;;;;;;4.45;0.80;;;;;;;;;;5034260;28;20022;-36
2023/10/29 10:16:20;;;;;;;3.55;0.50;;;;;;;;;;5034229;28;20117;-36
2023/10/29 10:18:53;;;;;;;5.60;1.08;;;;;;;;;;5034081;28;20112;-36
2023/10/29 10:21:21;;;;;;;5.93;0.70;;;;;;;;;;5033873;28;20133;-36
2023/10/29 10:23:52;;;;;;;5.40;0.65;;;;;;;;;;5034138;28;20101;-36
2023/10/29 10:26:27;;;;;;;3.57;0.60;;;;;;;;;;5034025;28;20033;-36
2023/10/29 10:28:55;;;;;;;3.53;0.75;;;;;;;;;;5034052;28;20025;-36
2023/10/29 10:31:23;;;;;;;4.60;0.82;;;;;;;;;;5033907;28;20036;-36
2023/10/29 10:33:50;;;;;;;3.00;0.50;;;;;;;;;;5033958;28;20129;-36
2023/10/29 10:36:31;;;;;;;1.15;0.40;;;;;;;;;;5033659;28;20095;-36
2023/10/29 10:38:59;;;;;;;2.13;0.55;;;;;;;;;;5033912;28;20029;-36
2023/10/29 10:41:38;;;;;;;1.25;0.35;;;;;;;;;;5032342;28;20068;-36
2023/10/29 10:44:09;;;;;;;2.22;0.68;;;;;;;;;;5033813;28;20030;-36
2023/10/29 10:46:37;;;;;;;4.32;0.60;;;;;;;;;;5033264;28;20034;-37
2023/10/29 10:49:08;;;;;;;3.55;0.70;;;;;;;;;;5033634;28;20052;-36
2023/10/29 10:51:36;;;;;;;2.22;0.63;;;;;;;;;;5015859;28;20376;-37
2023/10/29 10:54:03;;;;;;;2.08;0.60;;;;;;;;;;5033557;28;20061;-37
2023/10/29 10:56:37;;;;;;;4.15;0.70;;;;;;;;;;5033523;28;20483;-37
2023/10/29 10:59:05;;;;;;;4.38;0.57;;;;;;;;;;5033403;28;20034;-37
2023/10/29 11:01:33;;;;;;;3.63;0.70;;;;;;;;;;5033452;28;20025;-37
2023/10/29 11:04:01;;;;;;;3.03;0.40;;;;;;;;;;5033421;28;20056;-37
2023/10/29 11:06:28;;;;;;;2.85;0.68;;;;;;;;;;5033134;28;20072;-37
2023/10/29 11:08:56;;;;;;;5.20;0.63;;;;;;;;;;5033293;28;20017;-37
2023/10/29 11:11:38;;;;;;;5.18;0.95;;;;;;;;;;5033135;28;20029;-37
2023/10/29 11:14:12;;;;;;;3.55;0.40;;;;;;;;;;5032673;28;20041;-37
2023/10/29 11:16:55;;;;;;;1.77;0.40;;;;;;;;;;5032649;28;20040;-37
2023/10/29 11:19:39;;;;;;;5.05;0.75;;;;;;;;;;5032694;28;20044;-37
2023/10/29 11:22:14;;;;;;;4.50;0.32;;;;;;;;;;5030831;28;20062;-36
2023/10/29 11:24:41;;;;;;;2.38;0.60;;;;;;;;;;5032956;28;20065;-36
2023/10/29 11:27:26;;;;;;;2.45;0.60;;;;;;;;;;5032994;28;20452;-36
2023/10/29 11:30:10;;;;;;;2.55;0.65;;;;;;;;;;5032856;28;20033;-36
2023/10/29 11:32:37;;;;;;;4.32;0.40;;;;;;;;;;5032735;28;20021;-36
2023/10/29 11:35:16;;;;;;;2.47;0.40;;;;;;;;;;5032435;28;20099;-36
2023/10/29 11:37:43;;;;;;;1.80;0.50;;;;;;;;;;5032672;28;20045;-36
2023/10/29 11:40:25;;;;;;;3.03;0.60;;;;;;;;;;5032576;28;20108;-36
2023/10/29 11:42:53;;;;;;;2.72;0.43;;;;;;;;;;5032440;28;20591;-37
2023/10/29 11:45:36;;;;;;;1.45;0.40;;;;;;;;;;5032424;28;20411;-37
2023/10/29 11:48:09;;;;;;;4.43;0.60;;;;;;;;;;5032579;28;20183;-37
2023/10/29 11:50:36;;;;;;;4.22;0.40;;;;;;;;;;5032364;28;20029;-37
2023/10/29 11:53:03;;;;;;;1.88;0.52;;;;;;;;;;5032013;28;20151;-37
2023/10/29 11:55:38;;;;;;;2.17;0.30;;;;;;;;;;5032133;28;20389;-37
2023/10/29 11:58:07;;;;;;;2.17;0.40;;;;;;;;;;5032355;28;20026;-37
2023/10/29 12:00:40;;;;;;;2.05;0.60;;;;;;;;;;5031780;28;20044;-37
2023/10/29 12:03:14;;;;;;;2.83;0.30;;;;;;;;;;5031405;28;20061;-37
2023/10/29 12:05:41;;;;;;;1.98;0.47;;;;;;;;;;5031211;28;20022;-37
2023/10/29 12:08:08;;;;;;;10.68;1.05;;;;;;;;;;5031572;28;20116;-37
2023/10/29 12:10:45;;;;;;;6.22;0.70;;;;;;;;;;5031453;28;20033;-38
2023/10/29 12:13:12;;;;;;;6.75;0.88;;;;;;;;;;5028998;28;20032;-37
2023/10/29 12:15:39;;;;;;;3.55;0.95;;;;;;;;;;5030998;28;20033;-38
2023/10/29 12:18:06;;;;;;;3.67;0.60;;;;;;;;;;5030755;28;20107;-37
2023/10/29 12:20:33;;;;;;;3.05;0.65;;;;;;;;;;5028392;28;20049;-37
2023/10/29 12:23:02;;;;;;;6.13;0.77;;;;;;;;;;5012097;28;20040;-37
2023/10/29 12:25:30;;;;;;;7.13;0.95;;;;;;;;;;5030065;28;20044;-37
2023/10/29 12:27:57;;;;;;;10.70;1.10;;;;;;;;;;5030745;28;20031;-37
2023/10/29 12:30:42;;;;;;;8.88;1.10;;;;;;;;;;5012896;28;20124;-37
2023/10/29 12:33:39;;;;;;;5.32;0.70;;;;;;;;;;5030124;28;20041;-37
2023/10/29 12:36:15;;;;;;;4.35;0.90;;;;;;;;;;5011317;28;20102;-37
2023/10/29 12:38:42;;;;;;;8.20;1.10;;;;;;;;;;5029451;28;20017;-37
2023/10/29 12:41:14;;;;;;;6.28;1.00;;;;;;;;;;5030489;28;20033;-36
2023/10/29 12:43:52;;;;;;;6.85;0.90;;;;;;;;;;5029661;28;20036;-38
2023/10/29 12:46:20;;;;;;;6.68;0.65;;;;;;;;;;5030335;28;20044;-38
2023/10/29 12:48:59;;;;;;;4.00;0.70;;;;;;;;;;5030336;28;20033;-37
2023/10/29 12:51:27;;;;;;;13.52;1.30;;;;;;;;;;5029897;28;20044;-38
2023/10/29 12:54:09;;;;;;;7.82;0.90;;;;;;;;;;5030542;28;20060;-37
2023/10/29 12:56:54;;;;;;;7.65;1.00;;;;;;;;;;5029430;28;20552;-38
2023/10/29 12:59:28;;;;;;;9.25;0.98;;;;;;;;;;5029178;28;20056;-38
2023/10/29 13:01:59;;;;;;;8.55;1.08;;;;;;;;;;5030885;28;20038;-37
2023/10/29 13:04:27;;;;;;;6.70;1.00;;;;;;;;;;5031484;28;20029;-40
2023/10/29 13:06:55;;;;;;;14.45;1.02;;;;;;;;;;5034521;28;20029;-37
2023/10/29 13:09:23;;;;;;;10.70;0.90;;;;;;;;;;5032442;28;20037;-36
2023/10/29 13:11:54;;;;;;;6.38;0.85;;;;;;;;;;5034960;28;20108;-36
2023/10/29 13:14:24;;;;;;;4.35;0.60;;;;;;;;;;5031295;28;20036;-37
2023/10/29 13:16:55;;;;;;;7.43;0.70;;;;;;;;;;5034189;28;20033;-36
2023/10/29 13:19:26;;;;;;;5.05;0.80;;;;;;;;;;5034244;28;20041;-36
2023/10/29 13:21:53;;;;;;;6.28;1.27;;;;;;;;;;5033861;28;20045;-37
2023/10/29 13:24:24;;;;;;;7.13;1.08;;;;;;;;;;5034673;28;20534;-37
2023/10/29 13:26:52;;;;;;;11.15;1.63;;;;;;;;;;5032378;28;20021;-36
2023/10/29 13:29:20;;;;;;;15.18;1.23;;;;;;;;;;5034782;28;20553;-36
2023/10/29 13:31:47;;;;;;;12.05;1.00;;;;;;;;;;5034971;28;20052;-37
2023/10/29 13:34:15;;;;;;;6.90;0.80;;;;;;;;;;5035016;28;20443;-36
2023/10/29 13:36:43;;;;;;;8.43;1.30;;;;;;;;;;5034993;28;20110;-36
2023/10/29 13:39:10;;;;;;;12.20;1.17;;;;;;;;;;5034778;28;20025;-36
2023/10/29 13:41:38;;;;;;;6.85;1.00;;;;;;;;;;5034848;28;20493;-36
2023/10/29 13:44:06;;;;;;;9.40;1.13;;;;;;;;;;5025390;28;20051;-36
2023/10/29 13:46:33;;;;;;;8.43;1.08;;;;;;;;;;5033943;28;20045;-37
2023/10/29 13:49:00;;;;;;;11.50;1.20;;;;;;;;;;5031984;28;20075;-38
2023/10/29 13:51:27;;;;;;;9.13;1.40;;;;;;;;;;5033902;28;20026;-37
2023/10/29 13:53:54;;;;;;;17.25;1.20;;;;;;;;;;5034028;28;20124;-37
2023/10/29 13:56:24;;;;;;;29.75;3.17;;;;;;;;;;5033184;28;20396;-39
2023/10/29 13:58:51;;;;;;;20.73;3.03;;;;;;;;;;5027476;28;20074;-36
2023/10/29 14:01:24;;;;;;;26.90;4.05;;;;;;;;;;5033817;28;20052;-36
2023/10/29 14:03:55;;;;;;;32.95;4.35;;;;;;;;;;5034166;28;20057;-36
2023/10/29 14:06:22;;;;;;;23.70;3.03;;;;;;;;;;5022627;28;20055;-37
2023/10/29 14:08:49;;;;;;;38.50;3.88;;;;;;;;;;5032523;28;20017;-37
2023/10/29 14:11:17;;;;;;;21.60;4.00;;;;;;;;;;5033503;28;20041;-37
2023/10/29 14:13:44;;;;;;;28.98;3.47;;;;;;;;;;5033780;28;20053;-36
2023/10/29 14:16:11;;;;;;;28.35;4.38;;;;;;;;;;5033444;28;20029;-36
2023/10/29 14:18:38;;;;;;;28.77;3.95;;;;;;;;;;5034041;28;20041;-37
2023/10/29 14:21:06;;;;;;;25.20;2.85;;;;;;;;;;5033242;28;20149;-37
2023/10/29 14:23:33;;;;;;;19.90;2.85;;;;;;;;;;5033160;28;20021;-36
2023/10/29 14:26:00;;;;;;;21.02;2.88;;;;;;;;;;5033269;28;20030;-37
2023/10/29 14:28:27;;;;;;;23.95;2.95;;;;;;;;;;5033815;28;20527;-36
2023/10/29 14:30:54;;;;;;;42.97;5.15;;;;;;;;;;5033477;28;20037;-37
2023/10/29 14:33:21;;;;;;;35.35;3.97;;;;;;;;;;5033499;28;20926;-36
2023/10/29 14:35:58;;;;;;;27.90;4.22;;;;;;;;;;5033660;28;20476;-36
2023/10/29 14:38:27;;;;;;;31.80;3.75;;;;;;;;;;5015748;28;20116;-37